Time;durP1;ratioP1;P1;durP2;ratioP2;P2;SDS_P1;SDS_P2;PMS_P1;PMS_P2;Temp;Humidity;BMP_temperature;BMP_pressure;BME280_temperature;BME280_humidity;BME280_pressure;Samples;Min_cycle;Max_cycle;Signal;HPM_P1;HPM_P2
2020/07/30 00:00:45;;;;;;;8.950001;7.55;;;;;;;16.32;86.21289;95472.08;;;;
2020/07/30 00:01:47;;;;;;;8.950001;7.55;;;;;;;16.32;86.21289;95472.08;;;;
2020/07/30 00:02:48;;;;;;;8.950001;7.55;;;;;;;16.32;86.21289;95472.08;;;;
2020/07/30 00:03:51;;;;;;;8.950001;7.55;;;;;;;16.32;86.21289;95472.08;;;;
2020/07/30 00:04:51;;;;;;;8.950001;7.55;;;;;;;16.32;86.21289;95472.08;;;;
2020/07/30 00:05:52;;;;;;;8.950001;7.55;;;;;;;16.32;86.21289;95472.08;;;;
2020/07/30 00:06:52;;;;;;;8.950001;7.55;;;;;;;16.32;86.21289;95472.08;;;;
2020/07/30 00:07:53;;;;;;;8.950001;7.55;;;;;;;16.32;86.21289;95472.08;;;;
2020/07/30 00:08:56;;;;;;;8.950001;7.55;;;;;;;16.32;86.21289;95472.08;;;;
2020/07/30 00:09:56;;;;;;;9.099999;8.200001;;;;;;;16.23;87.00781;95468.1;;;;
2020/07/30 00:10:57;;;;;;;9.099999;8.200001;;;;;;;16.23;87.00781;95468.1;;;;
2020/07/30 00:11:58;;;;;;;9.099999;8.200001;;;;;;;16.23;87.00781;95468.1;;;;
2020/07/30 00:12:59;;;;;;;9.099999;8.200001;;;;;;;16.23;87.00781;95468.1;;;;
2020/07/30 00:13:59;;;;;;;9.099999;8.200001;;;;;;;16.23;87.00781;95468.1;;;;
2020/07/30 00:15:00;;;;;;;9.099999;8.200001;;;;;;;16.23;87.00781;95468.1;;;;
2020/07/30 00:16:00;;;;;;;9.099999;8.200001;;;;;;;16.23;87.00781;95468.1;;;;
2020/07/30 00:17:01;;;;;;;9.099999;8.200001;;;;;;;16.23;87.00781;95468.1;;;;
2020/07/30 00:18:02;;;;;;;9.099999;8.200001;;;;;;;16.23;87.00781;95468.1;;;;
2020/07/30 00:19:03;;;;;;;9.099999;8.200001;;;;;;;16.23;87.00781;95468.1;;;;
2020/07/30 00:20:04;;;;;;;9.15;8.25;;;;;;;16.09;87.66895;95463.4;;;;
2020/07/30 00:21:05;;;;;;;9.15;8.25;;;;;;;16.09;87.66895;95463.4;;;;
2020/07/30 00:22:05;;;;;;;9.15;8.25;;;;;;;16.09;87.66895;95463.4;;;;
2020/07/30 00:23:06;;;;;;;9.15;8.25;;;;;;;16.09;87.66895;95463.4;;;;
2020/07/30 00:24:07;;;;;;;9.15;8.25;;;;;;;16.09;87.66895;95463.4;;;;
2020/07/30 00:25:08;;;;;;;9.15;8.25;;;;;;;16.09;87.66895;95463.4;;;;
2020/07/30 00:26:08;;;;;;;9.15;8.25;;;;;;;16.09;87.66895;95463.4;;;;
2020/07/30 00:27:09;;;;;;;9.15;8.25;;;;;;;16.09;87.66895;95463.4;;;;
2020/07/30 00:28:10;;;;;;;9.15;8.25;;;;;;;16.09;87.66895;95463.4;;;;
2020/07/30 00:29:10;;;;;;;9.15;8.25;;;;;;;16.09;87.66895;95463.4;;;;
2020/07/30 00:30:11;;;;;;;9.15;8.25;;;;;;;16.09;87.66895;95463.4;;;;
2020/07/30 00:31:12;;;;;;;9.85;7.900001;;;;;;;16.03;88.45508;95470.87;;;;
2020/07/30 00:32:13;;;;;;;9.85;7.900001;;;;;;;16.03;88.45508;95470.87;;;;
2020/07/30 00:33:14;;;;;;;9.85;7.900001;;;;;;;16.03;88.45508;95470.87;;;;
2020/07/30 00:34:14;;;;;;;9.85;7.900001;;;;;;;16.03;88.45508;95470.87;;;;
2020/07/30 00:35:15;;;;;;;9.85;7.900001;;;;;;;16.03;88.45508;95470.87;;;;
2020/07/30 00:36:16;;;;;;;9.85;7.900001;;;;;;;16.03;88.45508;95470.87;;;;
2020/07/30 00:37:16;;;;;;;9.85;7.900001;;;;;;;16.03;88.45508;95470.87;;;;
2020/07/30 00:38:17;;;;;;;9.85;7.900001;;;;;;;16.03;88.45508;95470.87;;;;
2020/07/30 00:39:18;;;;;;;9.85;7.900001;;;;;;;16.03;88.45508;95470.87;;;;
2020/07/30 00:40:19;;;;;;;9.85;7.900001;;;;;;;16.03;88.45508;95470.87;;;;
2020/07/30 00:41:20;;;;;;;8.849999;7.950001;;;;;;;15.88;89.09473;95468.48;;;;
2020/07/30 00:42:22;;;;;;;8.849999;7.950001;;;;;;;15.88;89.09473;95468.48;;;;
2020/07/30 00:43:22;;;;;;;8.849999;7.950001;;;;;;;15.88;89.09473;95468.48;;;;
2020/07/30 00:44:23;;;;;;;8.849999;7.950001;;;;;;;15.88;89.09473;95468.48;;;;
2020/07/30 00:45:23;;;;;;;8.849999;7.950001;;;;;;;15.88;89.09473;95468.48;;;;
2020/07/30 00:46:25;;;;;;;8.849999;7.950001;;;;;;;15.88;89.09473;95468.48;;;;
2020/07/30 00:47:27;;;;;;;8.849999;7.950001;;;;;;;15.88;89.09473;95468.48;;;;
2020/07/30 00:48:28;;;;;;;8.849999;7.950001;;;;;;;15.88;89.09473;95468.48;;;;
2020/07/30 00:49:28;;;;;;;8.849999;7.950001;;;;;;;15.88;89.09473;95468.48;;;;
2020/07/30 00:50:31;;;;;;;8.849999;7.950001;;;;;;;15.88;89.09473;95468.48;;;;
2020/07/30 00:51:32;;;;;;;8.849999;7.950001;;;;;;;15.88;89.09473;95468.48;;;;
2020/07/30 00:52:32;;;;;;;9.299999;7.050001;;;;;;;15.74;89.93945;95464.03;;;;
2020/07/30 00:53:33;;;;;;;9.299999;7.050001;;;;;;;15.74;89.93945;95464.03;;;;
2020/07/30 00:54:35;;;;;;;9.299999;7.050001;;;;;;;15.74;89.93945;95464.03;;;;
2020/07/30 00:55:36;;;;;;;9.299999;7.050001;;;;;;;15.74;89.93945;95464.03;;;;
2020/07/30 00:56:44;;;;;;;9.299999;7.050001;;;;;;;15.74;89.93945;95464.03;;;;
2020/07/30 00:57:45;;;;;;;9.299999;7.050001;;;;;;;15.74;89.93945;95464.03;;;;
2020/07/30 00:58:45;;;;;;;9.299999;7.050001;;;;;;;15.74;89.93945;95464.03;;;;
2020/07/30 00:59:46;;;;;;;9.299999;7.050001;;;;;;;15.74;89.93945;95464.03;;;;
2020/07/30 01:00:47;;;;;;;9.299999;7.050001;;;;;;;15.74;89.93945;95464.03;;;;
2020/07/30 01:01:50;;;;;;;9.299999;7.050001;;;;;;;15.74;89.93945;95464.03;;;;
2020/07/30 01:02:53;;;;;;;7.749999;6.950001;;;;;;;15.68;90.35938;95470.96;;;;
2020/07/30 01:03:54;;;;;;;7.749999;6.950001;;;;;;;15.68;90.35938;95470.96;;;;
2020/07/30 01:04:55;;;;;;;7.749999;6.950001;;;;;;;15.68;90.35938;95470.96;;;;
2020/07/30 01:05:56;;;;;;;7.749999;6.950001;;;;;;;15.68;90.35938;95470.96;;;;
2020/07/30 01:07:06;;;;;;;7.749999;6.950001;;;;;;;15.68;90.35938;95470.96;;;;
2020/07/30 01:08:09;;;;;;;7.749999;6.950001;;;;;;;15.68;90.35938;95470.96;;;;
2020/07/30 01:09:11;;;;;;;7.749999;6.950001;;;;;;;15.68;90.35938;95470.96;;;;
2020/07/30 01:10:12;;;;;;;7.749999;6.950001;;;;;;;15.68;90.35938;95470.96;;;;
2020/07/30 01:11:16;;;;;;;7.749999;6.950001;;;;;;;15.68;90.35938;95470.96;;;;
2020/07/30 01:12:17;;;;;;;7.749999;6.950001;;;;;;;15.68;90.35938;95470.96;;;;
2020/07/30 01:13:21;;;;;;;7.650001;6.849999;;;;;;;15.55;90.78516;95469.22;;;;
2020/07/30 01:14:23;;;;;;;7.650001;6.849999;;;;;;;15.55;90.78516;95469.22;;;;
2020/07/30 01:15:24;;;;;;;7.650001;6.849999;;;;;;;15.55;90.78516;95469.22;;;;
2020/07/30 01:16:27;;;;;;;7.650001;6.849999;;;;;;;15.55;90.78516;95469.22;;;;
2020/07/30 01:17:28;;;;;;;7.650001;6.849999;;;;;;;15.55;90.78516;95469.22;;;;
2020/07/30 01:18:28;;;;;;;7.650001;6.849999;;;;;;;15.55;90.78516;95469.22;;;;
2020/07/30 01:19:33;;;;;;;7.650001;6.849999;;;;;;;15.55;90.78516;95469.22;;;;
2020/07/30 01:20:36;;;;;;;7.650001;6.849999;;;;;;;15.55;90.78516;95469.22;;;;
2020/07/30 01:21:41;;;;;;;7.650001;6.849999;;;;;;;15.55;90.78516;95469.22;;;;
2020/07/30 01:22:42;;;;;;;7.650001;6.849999;;;;;;;15.55;90.78516;95469.22;;;;
2020/07/30 01:23:42;;;;;;;9.049999;7.1;;;;;;;15.48;91.40625;95473.13;;;;
2020/07/30 01:24:45;;;;;;;9.049999;7.1;;;;;;;15.48;91.40625;95473.13;;;;
2020/07/30 01:25:49;;;;;;;9.049999;7.1;;;;;;;15.48;91.40625;95473.13;;;;
2020/07/30 01:26:53;;;;;;;9.049999;7.1;;;;;;;15.48;91.40625;95473.13;;;;
2020/07/30 01:27:54;;;;;;;9.049999;7.1;;;;;;;15.48;91.40625;95473.13;;;;
2020/07/30 01:28:55;;;;;;;9.049999;7.1;;;;;;;15.48;91.40625;95473.13;;;;
2020/07/30 01:29:55;;;;;;;9.049999;7.1;;;;;;;15.48;91.40625;95473.13;;;;
2020/07/30 01:30:59;;;;;;;9.049999;7.1;;;;;;;15.48;91.40625;95473.13;;;;
2020/07/30 01:31:59;;;;;;;9.049999;7.1;;;;;;;15.48;91.40625;95473.13;;;;
2020/07/30 01:33:00;;;;;;;9.049999;7.1;;;;;;;15.48;91.40625;95473.13;;;;
2020/07/30 01:34:06;;;;;;;8.4;7.599999;;;;;;;15.35;91.85352;95474.89;;;;
2020/07/30 01:35:07;;;;;;;8.4;7.599999;;;;;;;15.35;91.85352;95474.89;;;;
2020/07/30 01:36:15;;;;;;;8.4;7.599999;;;;;;;15.35;91.85352;95474.89;;;;
2020/07/30 01:37:15;;;;;;;8.4;7.599999;;;;;;;15.35;91.85352;95474.89;;;;
2020/07/30 01:38:17;;;;;;;8.4;7.599999;;;;;;;15.35;91.85352;95474.89;;;;
2020/07/30 01:39:21;;;;;;;8.4;7.599999;;;;;;;15.35;91.85352;95474.89;;;;
2020/07/30 01:40:22;;;;;;;8.4;7.599999;;;;;;;15.35;91.85352;95474.89;;;;
2020/07/30 01:41:23;;;;;;;8.4;7.599999;;;;;;;15.35;91.85352;95474.89;;;;
2020/07/30 01:42:23;;;;;;;8.4;7.599999;;;;;;;15.35;91.85352;95474.89;;;;
2020/07/30 01:43:24;;;;;;;8.4;7.599999;;;;;;;15.35;91.85352;95474.89;;;;
2020/07/30 01:44:26;;;;;;;8.4;7.599999;;;;;;;15.35;91.85352;95474.89;;;;
2020/07/30 01:45:27;;;;;;;8.75;7.799999;;;;;;;15.26;92.35156;95475.09;;;;
2020/07/30 01:46:27;;;;;;;8.75;7.799999;;;;;;;15.26;92.35156;95475.09;;;;
2020/07/30 01:47:28;;;;;;;8.75;7.799999;;;;;;;15.26;92.35156;95475.09;;;;
2020/07/30 01:48:28;;;;;;;8.75;7.799999;;;;;;;15.26;92.35156;95475.09;;;;
2020/07/30 01:49:29;;;;;;;8.75;7.799999;;;;;;;15.26;92.35156;95475.09;;;;
2020/07/30 01:50:30;;;;;;;8.75;7.799999;;;;;;;15.26;92.35156;95475.09;;;;
2020/07/30 01:51:32;;;;;;;8.75;7.799999;;;;;;;15.26;92.35156;95475.09;;;;
2020/07/30 01:52:32;;;;;;;8.75;7.799999;;;;;;;15.26;92.35156;95475.09;;;;
2020/07/30 01:53:33;;;;;;;8.75;7.799999;;;;;;;15.26;92.35156;95475.09;;;;
2020/07/30 01:54:35;;;;;;;8.75;7.799999;;;;;;;15.26;92.35156;95475.09;;;;
2020/07/30 01:55:36;;;;;;;9.350001;7.9;;;;;;;15.12;92.87988;95465.33;;;;
2020/07/30 01:56:38;;;;;;;9.350001;7.9;;;;;;;15.12;92.87988;95465.33;;;;
2020/07/30 01:57:38;;;;;;;9.350001;7.9;;;;;;;15.12;92.87988;95465.33;;;;
2020/07/30 01:58:39;;;;;;;9.350001;7.9;;;;;;;15.12;92.87988;95465.33;;;;
2020/07/30 01:59:39;;;;;;;9.350001;7.9;;;;;;;15.12;92.87988;95465.33;;;;
2020/07/30 02:00:40;;;;;;;9.350001;7.9;;;;;;;15.12;92.87988;95465.33;;;;
2020/07/30 02:01:43;;;;;;;9.350001;7.9;;;;;;;15.12;92.87988;95465.33;;;;
2020/07/30 02:02:46;;;;;;;9.350001;7.9;;;;;;;15.12;92.87988;95465.33;;;;
2020/07/30 02:03:50;;;;;;;9.350001;7.9;;;;;;;15.12;92.87988;95465.33;;;;
2020/07/30 02:04:50;;;;;;;9.350001;7.9;;;;;;;15.12;92.87988;95465.33;;;;
2020/07/30 02:05:51;;;;;;;8.55;7.550001;;;;;;;15.06;93.38379;95478.59;;;;
2020/07/30 02:06:55;;;;;;;8.55;7.550001;;;;;;;15.06;93.38379;95478.59;;;;
2020/07/30 02:07:56;;;;;;;8.55;7.550001;;;;;;;15.06;93.38379;95478.59;;;;
2020/07/30 02:08:57;;;;;;;8.55;7.550001;;;;;;;15.06;93.38379;95478.59;;;;
2020/07/30 02:09:57;;;;;;;8.55;7.550001;;;;;;;15.06;93.38379;95478.59;;;;
2020/07/30 02:10:58;;;;;;;8.55;7.550001;;;;;;;15.06;93.38379;95478.59;;;;
2020/07/30 02:12:01;;;;;;;8.55;7.550001;;;;;;;15.06;93.38379;95478.59;;;;
2020/07/30 02:13:02;;;;;;;8.55;7.550001;;;;;;;15.06;93.38379;95478.59;;;;
2020/07/30 02:14:03;;;;;;;8.55;7.550001;;;;;;;15.06;93.38379;95478.59;;;;
2020/07/30 02:15:05;;;;;;;8.55;7.550001;;;;;;;15.06;93.38379;95478.59;;;;
2020/07/30 02:16:06;;;;;;;8.55;7.550001;;;;;;;15.06;93.38379;95478.59;;;;
2020/07/30 02:17:08;;;;;;;8.249998;7.55;;;;;;;14.93;93.8291;95474.02;;;;
2020/07/30 02:18:08;;;;;;;8.249998;7.55;;;;;;;14.93;93.8291;95474.02;;;;
2020/07/30 02:19:11;;;;;;;8.249998;7.55;;;;;;;14.93;93.8291;95474.02;;;;
2020/07/30 02:20:12;;;;;;;8.249998;7.55;;;;;;;14.93;93.8291;95474.02;;;;
2020/07/30 02:21:14;;;;;;;8.249998;7.55;;;;;;;14.93;93.8291;95474.02;;;;
2020/07/30 02:22:15;;;;;;;8.249998;7.55;;;;;;;14.93;93.8291;95474.02;;;;
2020/07/30 02:23:15;;;;;;;8.249998;7.55;;;;;;;14.93;93.8291;95474.02;;;;
2020/07/30 02:24:18;;;;;;;8.249998;7.55;;;;;;;14.93;93.8291;95474.02;;;;
2020/07/30 02:25:18;;;;;;;8.249998;7.55;;;;;;;14.93;93.8291;95474.02;;;;
2020/07/30 02:26:19;;;;;;;8.249998;7.55;;;;;;;14.93;93.8291;95474.02;;;;
2020/07/30 02:27:20;;;;;;;8.65;7.75;;;;;;;14.89;94.36621;95473.83;;;;
2020/07/30 02:28:21;;;;;;;8.65;7.75;;;;;;;14.89;94.36621;95473.83;;;;
2020/07/30 02:29:22;;;;;;;8.65;7.75;;;;;;;14.89;94.36621;95473.83;;;;
2020/07/30 02:30:23;;;;;;;8.65;7.75;;;;;;;14.89;94.36621;95473.83;;;;
2020/07/30 02:31:24;;;;;;;8.65;7.75;;;;;;;14.89;94.36621;95473.83;;;;
2020/07/30 02:32:25;;;;;;;8.65;7.75;;;;;;;14.89;94.36621;95473.83;;;;
2020/07/30 02:33:26;;;;;;;8.65;7.75;;;;;;;14.89;94.36621;95473.83;;;;
2020/07/30 02:34:27;;;;;;;8.65;7.75;;;;;;;14.89;94.36621;95473.83;;;;
2020/07/30 02:35:27;;;;;;;8.65;7.75;;;;;;;14.89;94.36621;95473.83;;;;
2020/07/30 02:36:29;;;;;;;8.65;7.75;;;;;;;14.89;94.36621;95473.83;;;;
2020/07/30 02:37:30;;;;;;;8.649999;7.85;;;;;;;14.79;94.75488;95484.47;;;;
2020/07/30 02:38:30;;;;;;;8.649999;7.85;;;;;;;14.79;94.75488;95484.47;;;;
2020/07/30 02:39:32;;;;;;;8.649999;7.85;;;;;;;14.79;94.75488;95484.47;;;;
2020/07/30 02:40:33;;;;;;;8.649999;7.85;;;;;;;14.79;94.75488;95484.47;;;;
2020/07/30 02:41:34;;;;;;;8.649999;7.85;;;;;;;14.79;94.75488;95484.47;;;;
2020/07/30 02:42:35;;;;;;;8.649999;7.85;;;;;;;14.79;94.75488;95484.47;;;;
2020/07/30 02:43:36;;;;;;;8.649999;7.85;;;;;;;14.79;94.75488;95484.47;;;;
2020/07/30 02:44:37;;;;;;;8.649999;7.85;;;;;;;14.79;94.75488;95484.47;;;;
2020/07/30 02:45:38;;;;;;;8.649999;7.85;;;;;;;14.79;94.75488;95484.47;;;;
2020/07/30 02:46:39;;;;;;;8.649999;7.85;;;;;;;14.79;94.75488;95484.47;;;;
2020/07/30 02:47:39;;;;;;;8.649999;7.85;;;;;;;14.79;94.75488;95484.47;;;;
2020/07/30 02:48:41;;;;;;;9.450001;8.4;;;;;;;14.79;95.21582;95484.47;;;;
2020/07/30 02:49:42;;;;;;;9.450001;8.4;;;;;;;14.79;95.21582;95484.47;;;;
2020/07/30 02:50:42;;;;;;;9.450001;8.4;;;;;;;14.79;95.21582;95484.47;;;;
2020/07/30 02:51:43;;;;;;;9.450001;8.4;;;;;;;14.79;95.21582;95484.47;;;;
2020/07/30 02:52:44;;;;;;;9.450001;8.4;;;;;;;14.79;95.21582;95484.47;;;;
2020/07/30 02:53:45;;;;;;;9.450001;8.4;;;;;;;14.79;95.21582;95484.47;;;;
2020/07/30 02:54:45;;;;;;;9.450001;8.4;;;;;;;14.79;95.21582;95484.47;;;;
2020/07/30 02:55:46;;;;;;;9.450001;8.4;;;;;;;14.79;95.21582;95484.47;;;;
2020/07/30 02:56:46;;;;;;;9.450001;8.4;;;;;;;14.79;95.21582;95484.47;;;;
2020/07/30 02:57:47;;;;;;;9.450001;8.4;;;;;;;14.79;95.21582;95484.47;;;;
2020/07/30 02:58:48;;;;;;;9.099998;8.299998;;;;;;;14.72;95.51367;95489.83;;;;
2020/07/30 02:59:49;;;;;;;9.099998;8.299998;;;;;;;14.72;95.51367;95489.83;;;;
2020/07/30 03:00:51;;;;;;;9.099998;8.299998;;;;;;;14.72;95.51367;95489.83;;;;
2020/07/30 03:01:52;;;;;;;9.099998;8.299998;;;;;;;14.72;95.51367;95489.83;;;;
2020/07/30 03:02:53;;;;;;;9.099998;8.299998;;;;;;;14.72;95.51367;95489.83;;;;
2020/07/30 03:03:58;;;;;;;9.099998;8.299998;;;;;;;14.72;95.51367;95489.83;;;;
2020/07/30 03:04:59;;;;;;;9.099998;8.299998;;;;;;;14.72;95.51367;95489.83;;;;
2020/07/30 03:06:00;;;;;;;9.099998;8.299998;;;;;;;14.72;95.51367;95489.83;;;;
2020/07/30 03:07:00;;;;;;;9.099998;8.299998;;;;;;;14.72;95.51367;95489.83;;;;
2020/07/30 03:08:01;;;;;;;9.099998;8.299998;;;;;;;14.72;95.51367;95489.83;;;;
2020/07/30 03:11:18;;;;;;;9.649999;8.799998;;;;;;;14.74;96.04297;95503.99;;;;
2020/07/30 03:12:23;;;;;;;9.649999;8.799998;;;;;;;14.74;96.04297;95503.99;;;;
2020/07/30 03:13:24;;;;;;;9.649999;8.799998;;;;;;;14.74;96.04297;95503.99;;;;
2020/07/30 03:14:29;;;;;;;9.649999;8.799998;;;;;;;14.74;96.04297;95503.99;;;;
2020/07/30 03:15:34;;;;;;;9.649999;8.799998;;;;;;;14.74;96.04297;95503.99;;;;
2020/07/30 03:16:34;;;;;;;9.649999;8.799998;;;;;;;14.74;96.04297;95503.99;;;;
2020/07/30 03:17:41;;;;;;;9.649999;8.799998;;;;;;;14.74;96.04297;95503.99;;;;
2020/07/30 03:18:47;;;;;;;9.649999;8.799998;;;;;;;14.74;96.04297;95503.99;;;;
2020/07/30 03:19:47;;;;;;;9.649999;8.799998;;;;;;;14.74;96.04297;95503.99;;;;
2020/07/30 03:20:54;;;;;;;9.400002;8.5;;;;;;;14.63;96.2998;95506.19;;;;
2020/07/30 03:21:55;;;;;;;9.400002;8.5;;;;;;;14.63;96.2998;95506.19;;;;
2020/07/30 03:23:08;;;;;;;9.400002;8.5;;;;;;;14.63;96.2998;95506.19;;;;
2020/07/30 03:24:16;;;;;;;9.400002;8.5;;;;;;;14.63;96.2998;95506.19;;;;
2020/07/30 03:25:18;;;;;;;9.400002;8.5;;;;;;;14.63;96.2998;95506.19;;;;
2020/07/30 03:26:23;;;;;;;9.400002;8.5;;;;;;;14.63;96.2998;95506.19;;;;
2020/07/30 03:27:25;;;;;;;9.400002;8.5;;;;;;;14.63;96.2998;95506.19;;;;
2020/07/30 03:28:27;;;;;;;9.400002;8.5;;;;;;;14.63;96.2998;95506.19;;;;
2020/07/30 03:29:34;;;;;;;9.400002;8.5;;;;;;;14.63;96.2998;95506.19;;;;
2020/07/30 03:30:34;;;;;;;9.799999;8.9;;;;;;;14.61;96.7334;95521.09;;;;
2020/07/30 03:31:37;;;;;;;9.799999;8.9;;;;;;;14.61;96.7334;95521.09;;;;
2020/07/30 03:32:42;;;;;;;9.799999;8.9;;;;;;;14.61;96.7334;95521.09;;;;
2020/07/30 03:33:43;;;;;;;9.799999;8.9;;;;;;;14.61;96.7334;95521.09;;;;
2020/07/30 03:34:44;;;;;;;9.799999;8.9;;;;;;;14.61;96.7334;95521.09;;;;
2020/07/30 03:35:49;;;;;;;9.799999;8.9;;;;;;;14.61;96.7334;95521.09;;;;
2020/07/30 03:36:51;;;;;;;9.799999;8.9;;;;;;;14.61;96.7334;95521.09;;;;
2020/07/30 03:37:51;;;;;;;9.799999;8.9;;;;;;;14.61;96.7334;95521.09;;;;
2020/07/30 03:38:58;;;;;;;9.799999;8.9;;;;;;;14.61;96.7334;95521.09;;;;
2020/07/30 03:40:01;;;;;;;9.799999;8.9;;;;;;;14.61;96.7334;95521.09;;;;
2020/07/30 03:41:05;;;;;;;11;9.400001;;;;;;;14.54;97.10547;95532.7;;;;
2020/07/30 03:42:11;;;;;;;11;9.400001;;;;;;;14.54;97.10547;95532.7;;;;
2020/07/30 03:43:22;;;;;;;11;9.400001;;;;;;;14.54;97.10547;95532.7;;;;
2020/07/30 03:44:28;;;;;;;11;9.400001;;;;;;;14.54;97.10547;95532.7;;;;
2020/07/30 03:45:29;;;;;;;11;9.400001;;;;;;;14.54;97.10547;95532.7;;;;
2020/07/30 03:46:35;;;;;;;11;9.400001;;;;;;;14.54;97.10547;95532.7;;;;
2020/07/30 03:47:50;;;;;;;11;9.400001;;;;;;;14.54;97.10547;95532.7;;;;
2020/07/30 03:49:01;;;;;;;11;9.400001;;;;;;;14.54;97.10547;95532.7;;;;
2020/07/30 03:50:06;;;;;;;11;9.400001;;;;;;;14.54;97.10547;95532.7;;;;
2020/07/30 03:51:11;;;;;;;11;9.400001;;;;;;;14.54;97.10547;95532.7;;;;
2020/07/30 03:52:12;;;;;;;10.25;9.25;;;;;;;14.51;97.57129;95531.34;;;;
2020/07/30 03:53:21;;;;;;;10.25;9.25;;;;;;;14.51;97.57129;95531.34;;;;
2020/07/30 03:54:26;;;;;;;10.25;9.25;;;;;;;14.51;97.57129;95531.34;;;;
2020/07/30 03:55:28;;;;;;;10.25;9.25;;;;;;;14.51;97.57129;95531.34;;;;
2020/07/30 03:56:33;;;;;;;10.25;9.25;;;;;;;14.51;97.57129;95531.34;;;;
2020/07/30 03:57:54;;;;;;;10.25;9.25;;;;;;;14.51;97.57129;95531.34;;;;
2020/07/30 03:58:59;;;;;;;10.25;9.25;;;;;;;14.51;97.57129;95531.34;;;;
2020/07/30 04:00:10;;;;;;;10.25;9.25;;;;;;;14.51;97.57129;95531.34;;;;
2020/07/30 04:01:29;;;;;;;10.25;9.25;;;;;;;14.51;97.57129;95531.34;;;;
2020/07/30 04:02:36;;;;;;;10.8;9.799998;;;;;;;14.52;97.9248;95529;;;;
2020/07/30 04:03:42;;;;;;;10.8;9.799998;;;;;;;14.52;97.9248;95529;;;;
2020/07/30 04:04:59;;;;;;;10.8;9.799998;;;;;;;14.52;97.9248;95529;;;;
2020/07/30 04:06:17;;;;;;;10.8;9.799998;;;;;;;14.52;97.9248;95529;;;;
2020/07/30 04:07:24;;;;;;;10.8;9.799998;;;;;;;14.52;97.9248;95529;;;;
2020/07/30 04:08:35;;;;;;;10.8;9.799998;;;;;;;14.52;97.9248;95529;;;;
2020/07/30 04:09:39;;;;;;;10.8;9.799998;;;;;;;14.52;97.9248;95529;;;;
2020/07/30 04:10:52;;;;;;;10.8;9.799998;;;;;;;14.52;97.9248;95529;;;;
2020/07/30 04:12:05;;;;;;;10.8;9.799998;;;;;;;14.52;97.9248;95529;;;;
2020/07/30 04:13:17;;;;;;;10.7;9.6;;;;;;;14.61;98.10645;95532.92;;;;
2020/07/30 04:14:28;;;;;;;10.7;9.6;;;;;;;14.61;98.10645;95532.92;;;;
2020/07/30 04:15:29;;;;;;;10.7;9.6;;;;;;;14.61;98.10645;95532.92;;;;
2020/07/30 04:16:42;;;;;;;10.7;9.6;;;;;;;14.61;98.10645;95532.92;;;;
2020/07/30 04:17:47;;;;;;;10.7;9.6;;;;;;;14.61;98.10645;95532.92;;;;
2020/07/30 04:19:02;;;;;;;10.7;9.6;;;;;;;14.61;98.10645;95532.92;;;;
2020/07/30 04:20:13;;;;;;;10.7;9.6;;;;;;;14.61;98.10645;95532.92;;;;
2020/07/30 04:21:21;;;;;;;10.7;9.6;;;;;;;14.61;98.10645;95532.92;;;;
2020/07/30 04:22:43;;;;;;;10.7;9.6;;;;;;;14.61;98.10645;95532.92;;;;
2020/07/30 04:23:53;;;;;;;10.1;9.2;;;;;;;14.64;98.28613;95531.86;;;;
2020/07/30 04:25:10;;;;;;;10.1;9.2;;;;;;;14.64;98.28613;95531.86;;;;
2020/07/30 04:26:25;;;;;;;10.1;9.2;;;;;;;14.64;98.28613;95531.86;;;;
2020/07/30 04:27:30;;;;;;;10.1;9.2;;;;;;;14.64;98.28613;95531.86;;;;
2020/07/30 04:28:39;;;;;;;10.1;9.2;;;;;;;14.64;98.28613;95531.86;;;;
2020/07/30 04:29:44;;;;;;;10.1;9.2;;;;;;;14.64;98.28613;95531.86;;;;
2020/07/30 04:30:48;;;;;;;10.1;9.2;;;;;;;14.64;98.28613;95531.86;;;;
2020/07/30 04:32:03;;;;;;;10.1;9.2;;;;;;;14.64;98.28613;95531.86;;;;
2020/07/30 04:33:09;;;;;;;10.1;9.2;;;;;;;14.64;98.28613;95531.86;;;;
2020/07/30 04:34:18;;;;;;;14.25;10.1;;;;;;;14.81;98.53613;95530;;;;
2020/07/30 04:35:31;;;;;;;14.25;10.1;;;;;;;14.81;98.53613;95530;;;;
2020/07/30 04:36:36;;;;;;;14.25;10.1;;;;;;;14.81;98.53613;95530;;;;
2020/07/30 04:37:44;;;;;;;14.25;10.1;;;;;;;14.81;98.53613;95530;;;;
2020/07/30 04:38:47;;;;;;;14.25;10.1;;;;;;;14.81;98.53613;95530;;;;
2020/07/30 04:40:01;;;;;;;14.25;10.1;;;;;;;14.81;98.53613;95530;;;;
2020/07/30 04:41:20;;;;;;;14.25;10.1;;;;;;;14.81;98.53613;95530;;;;
2020/07/30 04:42:28;;;;;;;14.25;10.1;;;;;;;14.81;98.53613;95530;;;;
2020/07/30 04:43:36;;;;;;;14.25;10.1;;;;;;;14.81;98.53613;95530;;;;
2020/07/30 04:44:46;;;;;;;11.8;10.6;;;;;;;14.95;98.74219;95535.19;;;;
2020/07/30 04:45:54;;;;;;;11.8;10.6;;;;;;;14.95;98.74219;95535.19;;;;
2020/07/30 04:47:11;;;;;;;11.8;10.6;;;;;;;14.95;98.74219;95535.19;;;;
2020/07/30 04:48:16;;;;;;;11.8;10.6;;;;;;;14.95;98.74219;95535.19;;;;
2020/07/30 04:49:22;;;;;;;11.8;10.6;;;;;;;14.95;98.74219;95535.19;;;;
2020/07/30 04:50:32;;;;;;;11.8;10.6;;;;;;;14.95;98.74219;95535.19;;;;
2020/07/30 04:51:40;;;;;;;11.8;10.6;;;;;;;14.95;98.74219;95535.19;;;;
2020/07/30 04:52:49;;;;;;;11.8;10.6;;;;;;;14.95;98.74219;95535.19;;;;
2020/07/30 04:54:01;;;;;;;11.8;10.6;;;;;;;14.95;98.74219;95535.19;;;;
2020/07/30 04:55:06;;;;;;;11.8;10.6;;;;;;;14.95;98.74219;95535.19;;;;
2020/07/30 04:56:14;;;;;;;12.95;11.55;;;;;;;15.23;99.03906;95539.14;;;;
2020/07/30 04:57:24;;;;;;;12.95;11.55;;;;;;;15.23;99.03906;95539.14;;;;
2020/07/30 04:58:30;;;;;;;12.95;11.55;;;;;;;15.23;99.03906;95539.14;;;;
2020/07/30 04:59:47;;;;;;;12.95;11.55;;;;;;;15.23;99.03906;95539.14;;;;
2020/07/30 05:00:54;;;;;;;12.95;11.55;;;;;;;15.23;99.03906;95539.14;;;;
2020/07/30 05:01:58;;;;;;;12.95;11.55;;;;;;;15.23;99.03906;95539.14;;;;
2020/07/30 05:03:13;;;;;;;12.95;11.55;;;;;;;15.23;99.03906;95539.14;;;;
2020/07/30 05:04:18;;;;;;;12.95;11.55;;;;;;;15.23;99.03906;95539.14;;;;
2020/07/30 05:05:25;;;;;;;12.95;11.55;;;;;;;15.23;99.03906;95539.14;;;;
2020/07/30 05:06:29;;;;;;;12.05;10.95;;;;;;;15.47;99.23145;95553.11;;;;
2020/07/30 05:07:38;;;;;;;12.05;10.95;;;;;;;15.47;99.23145;95553.11;;;;
2020/07/30 05:08:46;;;;;;;12.05;10.95;;;;;;;15.47;99.23145;95553.11;;;;
2020/07/30 05:09:49;;;;;;;12.05;10.95;;;;;;;15.47;99.23145;95553.11;;;;
2020/07/30 05:10:56;;;;;;;12.05;10.95;;;;;;;15.47;99.23145;95553.11;;;;
2020/07/30 05:12:02;;;;;;;12.05;10.95;;;;;;;15.47;99.23145;95553.11;;;;
2020/07/30 05:13:08;;;;;;;12.05;10.95;;;;;;;15.47;99.23145;95553.11;;;;
2020/07/30 05:18:30;;;;;;;13.5;12.2;;;;;;;15.77;99.58887;95554.32;;;;
2020/07/30 05:19:41;;;;;;;13.5;12.2;;;;;;;15.77;99.58887;95554.32;;;;
2020/07/30 05:20:45;;;;;;;13.5;12.2;;;;;;;15.77;99.58887;95554.32;;;;
2020/07/30 05:21:49;;;;;;;13.5;12.2;;;;;;;15.77;99.58887;95554.32;;;;
2020/07/30 05:22:53;;;;;;;13.5;12.2;;;;;;;15.77;99.58887;95554.32;;;;
2020/07/30 05:24:01;;;;;;;13.5;12.2;;;;;;;15.77;99.58887;95554.32;;;;
2020/07/30 05:25:23;;;;;;;13.5;12.2;;;;;;;15.77;99.58887;95554.32;;;;
2020/07/30 05:26:42;;;;;;;13.5;12.2;;;;;;;15.77;99.58887;95554.32;;;;
2020/07/30 05:27:50;;;;;;;12.3;11.05;;;;;;;16.26;99.58008;95549.04;;;;
2020/07/30 05:29:14;;;;;;;12.3;11.05;;;;;;;16.26;99.58008;95549.04;;;;
2020/07/30 05:31:30;;;;;;;12.3;11.05;;;;;;;16.26;99.58008;95549.04;;;;
2020/07/30 05:32:39;;;;;;;12.3;11.05;;;;;;;16.26;99.58008;95549.04;;;;
2020/07/30 05:36:22;;;;;;;12.3;11.05;;;;;;;16.26;99.58008;95549.04;;;;
2020/07/30 05:37:27;;;;;;;12.3;11.05;;;;;;;16.26;99.58008;95549.04;;;;
2020/07/30 05:38:36;;;;;;;13.1;11.9;;;;;;;16.79;99.36426;95563.75;;;;
2020/07/30 05:39:44;;;;;;;13.1;11.9;;;;;;;16.79;99.36426;95563.75;;;;
2020/07/30 05:40:48;;;;;;;13.1;11.9;;;;;;;16.79;99.36426;95563.75;;;;
2020/07/30 05:41:53;;;;;;;13.1;11.9;;;;;;;16.79;99.36426;95563.75;;;;
2020/07/30 05:43:14;;;;;;;13.1;11.9;;;;;;;16.79;99.36426;95563.75;;;;
2020/07/30 05:44:25;;;;;;;13.1;11.9;;;;;;;16.79;99.36426;95563.75;;;;
2020/07/30 05:45:28;;;;;;;13.1;11.9;;;;;;;16.79;99.36426;95563.75;;;;
2020/07/30 05:46:53;;;;;;;13.1;11.9;;;;;;;16.79;99.36426;95563.75;;;;
2020/07/30 05:48:02;;;;;;;13.1;11.9;;;;;;;16.79;99.36426;95563.75;;;;
2020/07/30 05:49:11;;;;;;;14.25;11.35;;;;;;;17.39;99.1416;95565.8;;;;
2020/07/30 05:50:30;;;;;;;14.25;11.35;;;;;;;17.39;99.1416;95565.8;;;;
2020/07/30 05:51:36;;;;;;;14.25;11.35;;;;;;;17.39;99.1416;95565.8;;;;
2020/07/30 05:52:47;;;;;;;14.25;11.35;;;;;;;17.39;99.1416;95565.8;;;;
2020/07/30 05:54:15;;;;;;;14.25;11.35;;;;;;;17.39;99.1416;95565.8;;;;
2020/07/30 05:55:32;;;;;;;14.25;11.35;;;;;;;17.39;99.1416;95565.8;;;;
2020/07/30 05:56:41;;;;;;;14.25;11.35;;;;;;;17.39;99.1416;95565.8;;;;
2020/07/30 05:57:56;;;;;;;14.25;11.35;;;;;;;17.39;99.1416;95565.8;;;;
2020/07/30 05:59:05;;;;;;;12.95;11.4;;;;;;;17.93;99.1875;95566.94;;;;
2020/07/30 06:00:42;;;;;;;12.95;11.4;;;;;;;17.93;99.1875;95566.94;;;;